sensor_id;sensor_type;location;lat;lon;timestamp;P1;durP1;ratioP1;P2;durP2;ratioP2
10299;SDS011;5195;48.562;9.192;2023-07-13T00:01:04;2.13;;;2.00;;
10299;SDS011;5195;48.562;9.192;2023-07-13T00:03:30;2.20;;;1.90;;
10299;SDS011;5195;48.562;9.192;2023-07-13T00:05:59;2.00;;;1.90;;
10299;SDS011;5195;48.562;9.192;2023-07-13T00:08:25;1.90;;;1.80;;
10299;SDS011;5195;48.562;9.192;2023-07-13T00:10:52;2.55;;;2.17;;
10299;SDS011;5195;48.562;9.192;2023-07-13T00:13:17;2.13;;;1.90;;
10299;SDS011;5195;48.562;9.192;2023-07-13T00:15:43;3.70;;;1.90;;
10299;SDS011;5195;48.562;9.192;2023-07-13T00:18:08;2.60;;;2.10;;
10299;SDS011;5195;48.562;9.192;2023-07-13T00:20:34;2.03;;;1.93;;
10299;SDS011;5195;48.562;9.192;2023-07-13T00:22:59;3.03;;;1.97;;
10299;SDS011;5195;48.562;9.192;2023-07-13T00:25:25;1.80;;;1.70;;
10299;SDS011;5195;48.562;9.192;2023-07-13T00:27:50;2.10;;;2.00;;
10299;SDS011;5195;48.562;9.192;2023-07-13T00:30:17;2.20;;;2.00;;
10299;SDS011;5195;48.562;9.192;2023-07-13T00:32:42;2.00;;;1.90;;
10299;SDS011;5195;48.562;9.192;2023-07-13T00:35:08;2.07;;;1.97;;
10299;SDS011;5195;48.562;9.192;2023-07-13T00:37:36;2.00;;;1.90;;
10299;SDS011;5195;48.562;9.192;2023-07-13T00:40:05;2.10;;;1.97;;
10299;SDS011;5195;48.562;9.192;2023-07-13T00:42:31;2.63;;;2.00;;
10299;SDS011;5195;48.562;9.192;2023-07-13T00:47:32;1.90;;;1.80;;
10299;SDS011;5195;48.562;9.192;2023-07-13T00:49:58;2.15;;;1.90;;
10299;SDS011;5195;48.562;9.192;2023-07-13T00:52:25;2.33;;;1.80;;
10299;SDS011;5195;48.562;9.192;2023-07-13T00:54:50;1.90;;;1.80;;
10299;SDS011;5195;48.562;9.192;2023-07-13T00:57:17;2.10;;;1.90;;
10299;SDS011;5195;48.562;9.192;2023-07-13T00:59:45;1.70;;;1.60;;
10299;SDS011;5195;48.562;9.192;2023-07-13T01:02:09;2.40;;;1.80;;
10299;SDS011;5195;48.562;9.192;2023-07-13T01:04:35;1.90;;;1.70;;
10299;SDS011;5195;48.562;9.192;2023-07-13T01:07:00;1.87;;;1.77;;
10299;SDS011;5195;48.562;9.192;2023-07-13T01:09:27;2.07;;;1.90;;
10299;SDS011;5195;48.562;9.192;2023-07-13T01:11:52;1.80;;;1.70;;
10299;SDS011;5195;48.562;9.192;2023-07-13T01:14:18;3.50;;;1.50;;
10299;SDS011;5195;48.562;9.192;2023-07-13T01:16:45;1.50;;;1.40;;
10299;SDS011;5195;48.562;9.192;2023-07-13T01:19:24;1.60;;;1.50;;
10299;SDS011;5195;48.562;9.192;2023-07-13T01:21:42;3.60;;;1.70;;
10299;SDS011;5195;48.562;9.192;2023-07-13T01:24:08;1.50;;;1.40;;
10299;SDS011;5195;48.562;9.192;2023-07-13T01:26:34;2.37;;;1.33;;
10299;SDS011;5195;48.562;9.192;2023-07-13T01:28:59;1.50;;;1.50;;
10299;SDS011;5195;48.562;9.192;2023-07-13T01:31:25;1.65;;;1.60;;
10299;SDS011;5195;48.562;9.192;2023-07-13T01:33:51;1.75;;;1.65;;
10299;SDS011;5195;48.562;9.192;2023-07-13T01:36:16;2.37;;;1.77;;
10299;SDS011;5195;48.562;9.192;2023-07-13T01:38:41;3.00;;;1.67;;
10299;SDS011;5195;48.562;9.192;2023-07-13T01:41:07;3.97;;;1.30;;
10299;SDS011;5195;48.562;9.192;2023-07-13T01:43:32;1.40;;;1.30;;
10299;SDS011;5195;48.562;9.192;2023-07-13T01:45:58;2.27;;;1.63;;
10299;SDS011;5195;48.562;9.192;2023-07-13T01:48:26;2.62;;;1.50;;
10299;SDS011;5195;48.562;9.192;2023-07-13T01:50:51;1.70;;;1.30;;
10299;SDS011;5195;48.562;9.192;2023-07-13T01:53:17;1.50;;;1.40;;
10299;SDS011;5195;48.562;9.192;2023-07-13T01:55:42;2.10;;;1.55;;
10299;SDS011;5195;48.562;9.192;2023-07-13T01:58:08;1.40;;;1.30;;
10299;SDS011;5195;48.562;9.192;2023-07-13T02:00:33;2.27;;;1.33;;
10299;SDS011;5195;48.562;9.192;2023-07-13T02:02:59;2.07;;;1.97;;
10299;SDS011;5195;48.562;9.192;2023-07-13T02:05:25;1.70;;;1.57;;
10299;SDS011;5195;48.562;9.192;2023-07-13T02:07:51;2.57;;;1.60;;
10299;SDS011;5195;48.562;9.192;2023-07-13T02:10:17;1.80;;;1.70;;
10299;SDS011;5195;48.562;9.192;2023-07-13T02:12:43;1.95;;;1.55;;
10299;SDS011;5195;48.562;9.192;2023-07-13T02:15:08;4.00;;;1.70;;
10299;SDS011;5195;48.562;9.192;2023-07-13T02:17:34;2.53;;;1.73;;
10299;SDS011;5195;48.562;9.192;2023-07-13T02:19:59;1.23;;;1.13;;
10299;SDS011;5195;48.562;9.192;2023-07-13T02:22:25;2.35;;;1.87;;
10299;SDS011;5195;48.562;9.192;2023-07-13T02:24:50;3.23;;;1.57;;
10299;SDS011;5195;48.562;9.192;2023-07-13T02:27:16;2.33;;;1.63;;
10299;SDS011;5195;48.562;9.192;2023-07-13T02:29:42;1.30;;;1.20;;
10299;SDS011;5195;48.562;9.192;2023-07-13T02:32:09;1.80;;;1.50;;
10299;SDS011;5195;48.562;9.192;2023-07-13T02:34:35;2.43;;;1.60;;
10299;SDS011;5195;48.562;9.192;2023-07-13T02:37:00;2.35;;;1.40;;
10299;SDS011;5195;48.562;9.192;2023-07-13T02:39:26;1.50;;;1.40;;
10299;SDS011;5195;48.562;9.192;2023-07-13T02:41:51;2.17;;;1.50;;
10299;SDS011;5195;48.562;9.192;2023-07-13T02:44:17;1.60;;;1.50;;
10299;SDS011;5195;48.562;9.192;2023-07-13T02:46:43;1.90;;;1.53;;
10299;SDS011;5195;48.562;9.192;2023-07-13T02:49:09;3.53;;;1.43;;
10299;SDS011;5195;48.562;9.192;2023-07-13T02:51:34;2.53;;;1.75;;
10299;SDS011;5195;48.562;9.192;2023-07-13T02:54:00;3.30;;;1.57;;
10299;SDS011;5195;48.562;9.192;2023-07-13T02:56:26;2.65;;;1.60;;
10299;SDS011;5195;48.562;9.192;2023-07-13T02:58:52;2.30;;;1.60;;
10299;SDS011;5195;48.562;9.192;2023-07-13T03:01:18;1.47;;;1.43;;
10299;SDS011;5195;48.562;9.192;2023-07-13T03:03:45;2.45;;;1.50;;
10299;SDS011;5195;48.562;9.192;2023-07-13T03:06:12;2.70;;;1.70;;
10299;SDS011;5195;48.562;9.192;2023-07-13T03:08:37;1.60;;;1.50;;
10299;SDS011;5195;48.562;9.192;2023-07-13T03:11:06;2.93;;;1.60;;
10299;SDS011;5195;48.562;9.192;2023-07-13T03:13:30;3.03;;;1.53;;
10299;SDS011;5195;48.562;9.192;2023-07-13T03:15:55;1.60;;;1.50;;
10299;SDS011;5195;48.562;9.192;2023-07-13T03:18:21;2.77;;;1.60;;
10299;SDS011;5195;48.562;9.192;2023-07-13T03:20:49;1.60;;;1.50;;
10299;SDS011;5195;48.562;9.192;2023-07-13T03:23:12;3.30;;;1.70;;
10299;SDS011;5195;48.562;9.192;2023-07-13T03:25:39;3.50;;;1.58;;
10299;SDS011;5195;48.562;9.192;2023-07-13T03:28:04;1.55;;;1.45;;
10299;SDS011;5195;48.562;9.192;2023-07-13T03:30:30;2.37;;;1.60;;
10299;SDS011;5195;48.562;9.192;2023-07-13T03:32:56;2.22;;;1.65;;
10299;SDS011;5195;48.562;9.192;2023-07-13T03:35:22;2.58;;;1.70;;
10299;SDS011;5195;48.562;9.192;2023-07-13T03:37:48;3.47;;;1.70;;
10299;SDS011;5195;48.562;9.192;2023-07-13T03:40:14;3.00;;;1.90;;
10299;SDS011;5195;48.562;9.192;2023-07-13T03:42:39;2.20;;;1.70;;
10299;SDS011;5195;48.562;9.192;2023-07-13T03:45:05;3.22;;;2.10;;
10299;SDS011;5195;48.562;9.192;2023-07-13T03:47:31;2.33;;;1.53;;
10299;SDS011;5195;48.562;9.192;2023-07-13T03:49:56;2.40;;;1.60;;
10299;SDS011;5195;48.562;9.192;2023-07-13T03:52:22;2.07;;;1.50;;
10299;SDS011;5195;48.562;9.192;2023-07-13T03:54:48;2.00;;;1.90;;
10299;SDS011;5195;48.562;9.192;2023-07-13T03:57:14;1.80;;;1.70;;
10299;SDS011;5195;48.562;9.192;2023-07-13T03:59:40;1.75;;;1.65;;
10299;SDS011;5195;48.562;9.192;2023-07-13T04:02:05;4.13;;;1.77;;
10299;SDS011;5195;48.562;9.192;2023-07-13T04:04:31;2.37;;;1.50;;
10299;SDS011;5195;48.562;9.192;2023-07-13T04:06:57;3.17;;;1.60;;
10299;SDS011;5195;48.562;9.192;2023-07-13T04:09:22;1.60;;;1.50;;
10299;SDS011;5195;48.562;9.192;2023-07-13T04:11:48;1.40;;;1.30;;
10299;SDS011;5195;48.562;9.192;2023-07-13T04:14:15;2.58;;;1.60;;
10299;SDS011;5195;48.562;9.192;2023-07-13T04:16:41;6.63;;;1.50;;
10299;SDS011;5195;48.562;9.192;2023-07-13T04:19:06;3.60;;;1.80;;
10299;SDS011;5195;48.562;9.192;2023-07-13T04:21:32;1.50;;;1.40;;
10299;SDS011;5195;48.562;9.192;2023-07-13T04:23:57;1.83;;;1.63;;
10299;SDS011;5195;48.562;9.192;2023-07-13T04:26:23;2.30;;;1.50;;
10299;SDS011;5195;48.562;9.192;2023-07-13T04:28:49;2.60;;;1.70;;
10299;SDS011;5195;48.562;9.192;2023-07-13T04:31:16;1.73;;;1.60;;
10299;SDS011;5195;48.562;9.192;2023-07-13T04:33:41;1.80;;;1.70;;
10299;SDS011;5195;48.562;9.192;2023-07-13T04:36:08;2.35;;;1.60;;
10299;SDS011;5195;48.562;9.192;2023-07-13T04:38:32;2.77;;;1.53;;
10299;SDS011;5195;48.562;9.192;2023-07-13T04:40:59;1.57;;;1.47;;
10299;SDS011;5195;48.562;9.192;2023-07-13T04:43:24;4.80;;;1.80;;
10299;SDS011;5195;48.562;9.192;2023-07-13T04:45:50;6.63;;;1.90;;
10299;SDS011;5195;48.562;9.192;2023-07-13T04:48:15;2.17;;;1.43;;
10299;SDS011;5195;48.562;9.192;2023-07-13T04:50:41;3.27;;;1.70;;
10299;SDS011;5195;48.562;9.192;2023-07-13T04:53:06;3.37;;;1.70;;
10299;SDS011;5195;48.562;9.192;2023-07-13T04:55:33;3.20;;;1.50;;
10299;SDS011;5195;48.562;9.192;2023-07-13T04:57:58;2.25;;;1.70;;
10299;SDS011;5195;48.562;9.192;2023-07-13T05:00:25;2.10;;;1.60;;
10299;SDS011;5195;48.562;9.192;2023-07-13T05:02:50;2.97;;;1.47;;
10299;SDS011;5195;48.562;9.192;2023-07-13T05:05:16;1.50;;;1.20;;
10299;SDS011;5195;48.562;9.192;2023-07-13T05:07:41;2.42;;;1.60;;
10299;SDS011;5195;48.562;9.192;2023-07-13T05:10:07;3.93;;;1.37;;
10299;SDS011;5195;48.562;9.192;2023-07-13T05:12:33;1.47;;;1.30;;
10299;SDS011;5195;48.562;9.192;2023-07-13T05:14:58;1.40;;;1.30;;
10299;SDS011;5195;48.562;9.192;2023-07-13T05:17:24;2.45;;;1.60;;
10299;SDS011;5195;48.562;9.192;2023-07-13T05:19:50;2.87;;;1.60;;
10299;SDS011;5195;48.562;9.192;2023-07-13T05:22:16;5.47;;;2.33;;
10299;SDS011;5195;48.562;9.192;2023-07-13T05:24:41;2.00;;;1.80;;
10299;SDS011;5195;48.562;9.192;2023-07-13T05:27:07;3.53;;;1.70;;
10299;SDS011;5195;48.562;9.192;2023-07-13T05:29:33;4.63;;;1.70;;
10299;SDS011;5195;48.562;9.192;2023-07-13T05:31:58;3.83;;;1.67;;
10299;SDS011;5195;48.562;9.192;2023-07-13T05:34:25;3.57;;;1.80;;
10299;SDS011;5195;48.562;9.192;2023-07-13T05:36:50;2.22;;;1.40;;
10299;SDS011;5195;48.562;9.192;2023-07-13T05:39:16;1.67;;;1.33;;
10299;SDS011;5195;48.562;9.192;2023-07-13T05:41:42;2.03;;;1.40;;
10299;SDS011;5195;48.562;9.192;2023-07-13T05:44:07;1.90;;;1.50;;
10299;SDS011;5195;48.562;9.192;2023-07-13T05:46:33;2.58;;;1.50;;
10299;SDS011;5195;48.562;9.192;2023-07-13T05:48:58;1.63;;;1.43;;
10299;SDS011;5195;48.562;9.192;2023-07-13T05:51:24;4.27;;;1.33;;
10299;SDS011;5195;48.562;9.192;2023-07-13T05:53:49;3.80;;;1.87;;
10299;SDS011;5195;48.562;9.192;2023-07-13T05:56:15;3.50;;;1.70;;
10299;SDS011;5195;48.562;9.192;2023-07-13T05:58:40;3.20;;;1.80;;
10299;SDS011;5195;48.562;9.192;2023-07-13T06:01:10;2.80;;;1.60;;
10299;SDS011;5195;48.562;9.192;2023-07-13T06:03:35;2.50;;;1.80;;
10299;SDS011;5195;48.562;9.192;2023-07-13T06:06:01;1.98;;;1.77;;
10299;SDS011;5195;48.562;9.192;2023-07-13T06:08:27;2.97;;;1.77;;
10299;SDS011;5195;48.562;9.192;2023-07-13T06:10:53;2.77;;;1.60;;
10299;SDS011;5195;48.562;9.192;2023-07-13T06:13:19;4.35;;;1.80;;
10299;SDS011;5195;48.562;9.192;2023-07-13T06:15:48;5.27;;;1.60;;
10299;SDS011;5195;48.562;9.192;2023-07-13T06:18:14;2.63;;;1.50;;
10299;SDS011;5195;48.562;9.192;2023-07-13T06:20:40;6.57;;;1.93;;
10299;SDS011;5195;48.562;9.192;2023-07-13T06:23:05;3.53;;;1.75;;
10299;SDS011;5195;48.562;9.192;2023-07-13T06:25:32;3.37;;;1.50;;
10299;SDS011;5195;48.562;9.192;2023-07-13T06:27:58;2.33;;;1.83;;
10299;SDS011;5195;48.562;9.192;2023-07-13T06:30:23;3.50;;;2.00;;
10299;SDS011;5195;48.562;9.192;2023-07-13T06:32:49;2.93;;;1.60;;
10299;SDS011;5195;48.562;9.192;2023-07-13T06:35:14;2.22;;;1.87;;
10299;SDS011;5195;48.562;9.192;2023-07-13T06:37:41;2.27;;;1.77;;
10299;SDS011;5195;48.562;9.192;2023-07-13T06:40:07;2.43;;;1.60;;
10299;SDS011;5195;48.562;9.192;2023-07-13T06:42:33;3.43;;;1.83;;
10299;SDS011;5195;48.562;9.192;2023-07-13T06:44:58;3.35;;;1.55;;
10299;SDS011;5195;48.562;9.192;2023-07-13T06:47:24;3.10;;;1.87;;
10299;SDS011;5195;48.562;9.192;2023-07-13T06:49:51;2.43;;;1.70;;
10299;SDS011;5195;48.562;9.192;2023-07-13T06:52:17;3.73;;;1.77;;
10299;SDS011;5195;48.562;9.192;2023-07-13T06:54:44;3.65;;;1.60;;
10299;SDS011;5195;48.562;9.192;2023-07-13T06:57:10;2.07;;;1.50;;
10299;SDS011;5195;48.562;9.192;2023-07-13T06:59:35;1.60;;;1.50;;
10299;SDS011;5195;48.562;9.192;2023-07-13T07:02:01;4.50;;;1.90;;
10299;SDS011;5195;48.562;9.192;2023-07-13T07:04:26;5.60;;;1.80;;
10299;SDS011;5195;48.562;9.192;2023-07-13T07:06:54;2.50;;;1.70;;
10299;SDS011;5195;48.562;9.192;2023-07-13T07:09:18;3.80;;;1.80;;
10299;SDS011;5195;48.562;9.192;2023-07-13T07:11:44;3.97;;;1.70;;
10299;SDS011;5195;48.562;9.192;2023-07-13T07:14:09;2.57;;;1.80;;
10299;SDS011;5195;48.562;9.192;2023-07-13T07:16:35;3.10;;;1.60;;
10299;SDS011;5195;48.562;9.192;2023-07-13T07:19:00;3.70;;;1.83;;
10299;SDS011;5195;48.562;9.192;2023-07-13T07:21:27;2.23;;;1.60;;
10299;SDS011;5195;48.562;9.192;2023-07-13T07:23:53;1.97;;;1.60;;
10299;SDS011;5195;48.562;9.192;2023-07-13T07:26:19;2.67;;;1.75;;
10299;SDS011;5195;48.562;9.192;2023-07-13T07:28:45;3.33;;;1.77;;
10299;SDS011;5195;48.562;9.192;2023-07-13T07:31:10;2.97;;;1.67;;
10299;SDS011;5195;48.562;9.192;2023-07-13T07:33:36;2.17;;;1.63;;
10299;SDS011;5195;48.562;9.192;2023-07-13T07:36:01;3.60;;;2.03;;
10299;SDS011;5195;48.562;9.192;2023-07-13T07:38:27;2.40;;;1.50;;
10299;SDS011;5195;48.562;9.192;2023-07-13T07:40:53;2.23;;;1.30;;
10299;SDS011;5195;48.562;9.192;2023-07-13T07:43:19;2.37;;;1.60;;
10299;SDS011;5195;48.562;9.192;2023-07-13T07:45:45;3.63;;;1.73;;
10299;SDS011;5195;48.562;9.192;2023-07-13T07:48:10;2.70;;;1.37;;
10299;SDS011;5195;48.562;9.192;2023-07-13T07:50:37;4.33;;;1.90;;
10299;SDS011;5195;48.562;9.192;2023-07-13T07:53:02;2.53;;;1.77;;
10299;SDS011;5195;48.562;9.192;2023-07-13T07:55:28;1.70;;;1.60;;
10299;SDS011;5195;48.562;9.192;2023-07-13T07:57:56;2.00;;;1.62;;
10299;SDS011;5195;48.562;9.192;2023-07-13T08:00:19;3.25;;;1.50;;
10299;SDS011;5195;48.562;9.192;2023-07-13T08:02:45;2.80;;;1.57;;
10299;SDS011;5195;48.562;9.192;2023-07-13T08:05:10;3.97;;;1.60;;
10299;SDS011;5195;48.562;9.192;2023-07-13T08:07:36;2.77;;;1.60;;
10299;SDS011;5195;48.562;9.192;2023-07-13T08:10:01;3.07;;;1.17;;
10299;SDS011;5195;48.562;9.192;2023-07-13T08:12:27;2.40;;;1.90;;
10299;SDS011;5195;48.562;9.192;2023-07-13T08:14:52;2.30;;;1.50;;
10299;SDS011;5195;48.562;9.192;2023-07-13T08:17:21;1.57;;;1.37;;
10299;SDS011;5195;48.562;9.192;2023-07-13T08:19:46;2.03;;;1.23;;
10299;SDS011;5195;48.562;9.192;2023-07-13T08:22:12;2.17;;;1.58;;
10299;SDS011;5195;48.562;9.192;2023-07-13T08:24:38;2.72;;;1.30;;
10299;SDS011;5195;48.562;9.192;2023-07-13T08:27:03;1.87;;;1.30;;
10299;SDS011;5195;48.562;9.192;2023-07-13T08:29:29;1.77;;;1.40;;
10299;SDS011;5195;48.562;9.192;2023-07-13T08:31:54;2.63;;;1.60;;
10299;SDS011;5195;48.562;9.192;2023-07-13T08:34:20;1.60;;;1.50;;
10299;SDS011;5195;48.562;9.192;2023-07-13T08:36:48;2.07;;;1.20;;
10299;SDS011;5195;48.562;9.192;2023-07-13T08:39:14;3.87;;;1.65;;
10299;SDS011;5195;48.562;9.192;2023-07-13T08:41:41;1.30;;;1.20;;
10299;SDS011;5195;48.562;9.192;2023-07-13T08:44:07;3.50;;;1.30;;
10299;SDS011;5195;48.562;9.192;2023-07-13T08:46:33;2.57;;;1.57;;
10299;SDS011;5195;48.562;9.192;2023-07-13T08:49:11;1.97;;;1.40;;
10299;SDS011;5195;48.562;9.192;2023-07-13T08:51:35;4.23;;;1.50;;
10299;SDS011;5195;48.562;9.192;2023-07-13T08:54:16;1.40;;;1.20;;
10299;SDS011;5195;48.562;9.192;2023-07-13T08:56:38;2.00;;;1.50;;
10299;SDS011;5195;48.562;9.192;2023-07-13T08:59:14;3.70;;;1.37;;
10299;SDS011;5195;48.562;9.192;2023-07-13T09:04:45;2.77;;;1.53;;
10299;SDS011;5195;48.562;9.192;2023-07-13T09:12:36;1.57;;;1.40;;
10299;SDS011;5195;48.562;9.192;2023-07-13T09:14:59;1.60;;;1.50;;
10299;SDS011;5195;48.562;9.192;2023-07-13T09:17:36;3.17;;;1.40;;
10299;SDS011;5195;48.562;9.192;2023-07-13T09:20:09;2.60;;;1.53;;
10299;SDS011;5195;48.562;9.192;2023-07-13T09:22:37;2.00;;;1.30;;
10299;SDS011;5195;48.562;9.192;2023-07-13T09:25:12;1.23;;;1.20;;
10299;SDS011;5195;48.562;9.192;2023-07-13T09:27:33;4.50;;;1.57;;
10299;SDS011;5195;48.562;9.192;2023-07-13T09:29:58;3.33;;;1.57;;
10299;SDS011;5195;48.562;9.192;2023-07-13T09:32:23;2.60;;;1.23;;
10299;SDS011;5195;48.562;9.192;2023-07-13T09:34:52;3.67;;;1.30;;
10299;SDS011;5195;48.562;9.192;2023-07-13T09:37:18;1.80;;;1.57;;
10299;SDS011;5195;48.562;9.192;2023-07-13T09:39:43;2.53;;;1.42;;
10299;SDS011;5195;48.562;9.192;2023-07-13T09:42:14;2.70;;;1.40;;
10299;SDS011;5195;48.562;9.192;2023-07-13T09:44:38;1.73;;;1.47;;
10299;SDS011;5195;48.562;9.192;2023-07-13T09:47:03;2.47;;;1.40;;
10299;SDS011;5195;48.562;9.192;2023-07-13T09:49:32;2.07;;;1.30;;
10299;SDS011;5195;48.562;9.192;2023-07-13T09:54:32;3.67;;;1.50;;
10299;SDS011;5195;48.562;9.192;2023-07-13T09:56:56;2.75;;;1.45;;
10299;SDS011;5195;48.562;9.192;2023-07-13T09:59:21;2.57;;;1.47;;
10299;SDS011;5195;48.562;9.192;2023-07-13T10:01:47;2.00;;;1.33;;
10299;SDS011;5195;48.562;9.192;2023-07-13T10:04:13;1.33;;;1.27;;
10299;SDS011;5195;48.562;9.192;2023-07-13T10:06:39;1.83;;;1.10;;
10299;SDS011;5195;48.562;9.192;2023-07-13T10:09:04;2.47;;;1.20;;
10299;SDS011;5195;48.562;9.192;2023-07-13T10:11:30;1.57;;;1.47;;
10299;SDS011;5195;48.562;9.192;2023-07-13T10:13:57;0.97;;;0.97;;
10299;SDS011;5195;48.562;9.192;2023-07-13T10:16:23;2.97;;;1.30;;
10299;SDS011;5195;48.562;9.192;2023-07-13T10:19:34;2.25;;;1.40;;
10299;SDS011;5195;48.562;9.192;2023-07-13T10:21:43;2.17;;;1.40;;
10299;SDS011;5195;48.562;9.192;2023-07-13T10:24:15;3.12;;;1.25;;
10299;SDS011;5195;48.562;9.192;2023-07-13T10:26:42;2.67;;;1.17;;
10299;SDS011;5195;48.562;9.192;2023-07-13T10:29:07;1.23;;;1.10;;
10299;SDS011;5195;48.562;9.192;2023-07-13T10:31:32;2.23;;;1.33;;
10299;SDS011;5195;48.562;9.192;2023-07-13T10:33:57;3.55;;;1.27;;
10299;SDS011;5195;48.562;9.192;2023-07-13T10:36:27;1.85;;;1.30;;
10299;SDS011;5195;48.562;9.192;2023-07-13T10:38:50;2.47;;;1.30;;
10299;SDS011;5195;48.562;9.192;2023-07-13T10:41:16;4.40;;;1.27;;
10299;SDS011;5195;48.562;9.192;2023-07-13T10:43:42;3.33;;;1.42;;
10299;SDS011;5195;48.562;9.192;2023-07-13T10:46:07;6.13;;;1.57;;
10299;SDS011;5195;48.562;9.192;2023-07-13T10:48:32;2.47;;;1.48;;
10299;SDS011;5195;48.562;9.192;2023-07-13T10:50:57;1.50;;;1.40;;
10299;SDS011;5195;48.562;9.192;2023-07-13T10:53:30;5.72;;;1.30;;
10299;SDS011;5195;48.562;9.192;2023-07-13T10:56:03;1.20;;;1.10;;
10299;SDS011;5195;48.562;9.192;2023-07-13T10:58:29;1.57;;;0.90;;
10299;SDS011;5195;48.562;9.192;2023-07-13T11:01:17;1.43;;;1.10;;
10299;SDS011;5195;48.562;9.192;2023-07-13T11:03:53;1.40;;;1.30;;
10299;SDS011;5195;48.562;9.192;2023-07-13T11:08:53;2.03;;;1.80;;
10299;SDS011;5195;48.562;9.192;2023-07-13T11:18:48;2.85;;;2.20;;
10299;SDS011;5195;48.562;9.192;2023-07-13T11:21:27;3.03;;;2.03;;
10299;SDS011;5195;48.562;9.192;2023-07-13T11:24:15;1.97;;;1.27;;
10299;SDS011;5195;48.562;9.192;2023-07-13T11:26:41;2.20;;;1.13;;
10299;SDS011;5195;48.562;9.192;2023-07-13T11:31:52;1.73;;;1.10;;
10299;SDS011;5195;48.562;9.192;2023-07-13T11:34:21;2.20;;;1.20;;
10299;SDS011;5195;48.562;9.192;2023-07-13T11:36:43;2.53;;;1.48;;
10299;SDS011;5195;48.562;9.192;2023-07-13T11:41:59;2.40;;;1.27;;
10299;SDS011;5195;48.562;9.192;2023-07-13T11:44:26;2.00;;;1.40;;
10299;SDS011;5195;48.562;9.192;2023-07-13T11:50:27;1.80;;;1.10;;
10299;SDS011;5195;48.562;9.192;2023-07-13T11:53:03;2.10;;;1.30;;
10299;SDS011;5195;48.562;9.192;2023-07-13T11:55:38;2.20;;;1.30;;
10299;SDS011;5195;48.562;9.192;2023-07-13T11:58:15;2.12;;;1.30;;
10299;SDS011;5195;48.562;9.192;2023-07-13T12:00:50;2.87;;;1.40;;
10299;SDS011;5195;48.562;9.192;2023-07-13T12:03:25;2.57;;;1.50;;
10299;SDS011;5195;48.562;9.192;2023-07-13T12:06:03;1.75;;;1.45;;
10299;SDS011;5195;48.562;9.192;2023-07-13T12:08:38;2.30;;;1.20;;
10299;SDS011;5195;48.562;9.192;2023-07-13T12:11:15;2.47;;;1.40;;
10299;SDS011;5195;48.562;9.192;2023-07-13T12:13:48;1.93;;;1.37;;
10299;SDS011;5195;48.562;9.192;2023-07-13T12:16:26;2.00;;;1.30;;
10299;SDS011;5195;48.562;9.192;2023-07-13T12:19:00;2.00;;;1.30;;
10299;SDS011;5195;48.562;9.192;2023-07-13T12:21:41;2.03;;;1.23;;
10299;SDS011;5195;48.562;9.192;2023-07-13T12:24:15;1.40;;;1.30;;
10299;SDS011;5195;48.562;9.192;2023-07-13T12:26:58;2.95;;;1.50;;
10299;SDS011;5195;48.562;9.192;2023-07-13T12:29:33;3.28;;;1.62;;
10299;SDS011;5195;48.562;9.192;2023-07-13T12:32:09;2.27;;;1.23;;
10299;SDS011;5195;48.562;9.192;2023-07-13T12:34:55;1.57;;;1.40;;
10299;SDS011;5195;48.562;9.192;2023-07-13T12:37:30;1.00;;;1.00;;
10299;SDS011;5195;48.562;9.192;2023-07-13T12:40:12;2.47;;;1.30;;
10299;SDS011;5195;48.562;9.192;2023-07-13T12:42:42;2.03;;;0.90;;
10299;SDS011;5195;48.562;9.192;2023-07-13T12:45:24;2.63;;;1.20;;
10299;SDS011;5195;48.562;9.192;2023-07-13T12:47:59;2.00;;;1.40;;
10299;SDS011;5195;48.562;9.192;2023-07-13T12:50:39;1.60;;;1.20;;
10299;SDS011;5195;48.562;9.192;2023-07-13T12:53:15;1.17;;;1.17;;
10299;SDS011;5195;48.562;9.192;2023-07-13T12:55:55;2.60;;;1.40;;
10299;SDS011;5195;48.562;9.192;2023-07-13T12:58:39;2.00;;;1.20;;
10299;SDS011;5195;48.562;9.192;2023-07-13T13:01:14;1.50;;;1.20;;
10299;SDS011;5195;48.562;9.192;2023-07-13T13:03:52;2.07;;;1.30;;
10299;SDS011;5195;48.562;9.192;2023-07-13T13:06:28;1.67;;;1.20;;
10299;SDS011;5195;48.562;9.192;2023-07-13T13:09:03;1.67;;;1.17;;
10299;SDS011;5195;48.562;9.192;2023-07-13T13:11:38;1.50;;;1.17;;
10299;SDS011;5195;48.562;9.192;2023-07-13T13:14:14;1.37;;;1.23;;
10299;SDS011;5195;48.562;9.192;2023-07-13T13:16:50;1.50;;;1.40;;
10299;SDS011;5195;48.562;9.192;2023-07-13T13:19:26;2.10;;;1.40;;
10299;SDS011;5195;48.562;9.192;2023-07-13T13:22:00;3.37;;;1.40;;
10299;SDS011;5195;48.562;9.192;2023-07-13T13:24:36;1.40;;;1.30;;
10299;SDS011;5195;48.562;9.192;2023-07-13T13:27:20;1.53;;;1.43;;
10299;SDS011;5195;48.562;9.192;2023-07-13T13:29:54;1.40;;;1.30;;
10299;SDS011;5195;48.562;9.192;2023-07-13T13:32:30;1.43;;;1.23;;
10299;SDS011;5195;48.562;9.192;2023-07-13T13:35:07;2.13;;;1.10;;
10299;SDS011;5195;48.562;9.192;2023-07-13T13:37:41;1.60;;;1.50;;
10299;SDS011;5195;48.562;9.192;2023-07-13T13:40:19;2.23;;;1.30;;
10299;SDS011;5195;48.562;9.192;2023-07-13T13:42:54;1.17;;;1.17;;
10299;SDS011;5195;48.562;9.192;2023-07-13T13:45:30;1.40;;;1.30;;
10299;SDS011;5195;48.562;9.192;2023-07-13T13:48:06;2.15;;;1.23;;
10299;SDS011;5195;48.562;9.192;2023-07-13T13:50:41;3.10;;;1.30;;
10299;SDS011;5195;48.562;9.192;2023-07-13T13:53:17;2.03;;;1.40;;
10299;SDS011;5195;48.562;9.192;2023-07-13T13:55:52;2.10;;;1.17;;
10299;SDS011;5195;48.562;9.192;2023-07-13T13:58:28;2.73;;;1.10;;
10299;SDS011;5195;48.562;9.192;2023-07-13T14:01:03;2.20;;;1.37;;
10299;SDS011;5195;48.562;9.192;2023-07-13T14:03:39;1.50;;;1.03;;
10299;SDS011;5195;48.562;9.192;2023-07-13T14:06:15;1.17;;;1.07;;
10299;SDS011;5195;48.562;9.192;2023-07-13T14:08:52;1.43;;;1.30;;
10299;SDS011;5195;48.562;9.192;2023-07-13T14:11:27;2.40;;;1.30;;
10299;SDS011;5195;48.562;9.192;2023-07-13T14:14:04;1.40;;;1.30;;
10299;SDS011;5195;48.562;9.192;2023-07-13T14:16:41;1.70;;;1.30;;
10299;SDS011;5195;48.562;9.192;2023-07-13T14:19:16;1.33;;;1.13;;
10299;SDS011;5195;48.562;9.192;2023-07-13T14:21:54;1.55;;;1.45;;
10299;SDS011;5195;48.562;9.192;2023-07-13T14:24:31;3.57;;;1.20;;
10299;SDS011;5195;48.562;9.192;2023-07-13T14:27:08;2.60;;;1.33;;
10299;SDS011;5195;48.562;9.192;2023-07-13T14:29:42;1.67;;;1.23;;
10299;SDS011;5195;48.562;9.192;2023-07-13T14:32:19;2.10;;;1.33;;
10299;SDS011;5195;48.562;9.192;2023-07-13T14:34:54;1.30;;;1.20;;
10299;SDS011;5195;48.562;9.192;2023-07-13T14:37:30;1.53;;;1.23;;
10299;SDS011;5195;48.562;9.192;2023-07-13T14:42:51;1.93;;;1.23;;
10299;SDS011;5195;48.562;9.192;2023-07-13T14:45:27;2.70;;;1.20;;
10299;SDS011;5195;48.562;9.192;2023-07-13T14:48:05;2.17;;;1.47;;
10299;SDS011;5195;48.562;9.192;2023-07-13T14:50:40;2.27;;;1.43;;
10299;SDS011;5195;48.562;9.192;2023-07-13T14:53:16;1.97;;;1.23;;
10299;SDS011;5195;48.562;9.192;2023-07-13T14:55:52;2.00;;;1.20;;
10299;SDS011;5195;48.562;9.192;2023-07-13T14:58:28;1.60;;;1.17;;
10299;SDS011;5195;48.562;9.192;2023-07-13T15:01:03;2.60;;;1.25;;
10299;SDS011;5195;48.562;9.192;2023-07-13T15:03:40;1.53;;;1.30;;
10299;SDS011;5195;48.562;9.192;2023-07-13T15:06:14;1.83;;;1.20;;
10299;SDS011;5195;48.562;9.192;2023-07-13T15:08:50;3.55;;;1.42;;
10299;SDS011;5195;48.562;9.192;2023-07-13T15:11:26;1.67;;;1.40;;
10299;SDS011;5195;48.562;9.192;2023-07-13T15:14:01;1.67;;;1.27;;
10299;SDS011;5195;48.562;9.192;2023-07-13T15:16:37;2.83;;;1.47;;
10299;SDS011;5195;48.562;9.192;2023-07-13T15:19:12;2.80;;;1.37;;
10299;SDS011;5195;48.562;9.192;2023-07-13T15:21:48;1.60;;;1.20;;
10299;SDS011;5195;48.562;9.192;2023-07-13T15:24:24;1.97;;;1.40;;
10299;SDS011;5195;48.562;9.192;2023-07-13T15:26:59;2.47;;;1.23;;
10299;SDS011;5195;48.562;9.192;2023-07-13T15:29:35;1.40;;;1.30;;
10299;SDS011;5195;48.562;9.192;2023-07-13T15:32:14;2.77;;;1.37;;
10299;SDS011;5195;48.562;9.192;2023-07-13T15:34:49;1.80;;;1.47;;
10299;SDS011;5195;48.562;9.192;2023-07-13T15:37:26;2.20;;;1.43;;
10299;SDS011;5195;48.562;9.192;2023-07-13T15:40:02;1.70;;;1.60;;
10299;SDS011;5195;48.562;9.192;2023-07-13T15:42:38;2.23;;;1.10;;
10299;SDS011;5195;48.562;9.192;2023-07-13T15:45:15;1.60;;;1.50;;